sensor_id;sensor_type;location;lat;lon;timestamp;P1;durP1;ratioP1;P2;durP2;ratioP2
77099;SDS011;66602;48.922;2.414;2023-02-22T00:00:42;24.73;;;19.15;;
77099;SDS011;66602;48.922;2.414;2023-02-22T00:03:10;29.40;;;19.67;;
77099;SDS011;66602;48.922;2.414;2023-02-22T00:05:40;28.52;;;19.23;;
77099;SDS011;66602;48.922;2.414;2023-02-22T00:08:14;26.42;;;18.55;;
77099;SDS011;66602;48.922;2.414;2023-02-22T00:10:42;31.15;;;19.50;;
77099;SDS011;66602;48.922;2.414;2023-02-22T00:13:08;26.00;;;18.77;;
77099;SDS011;66602;48.922;2.414;2023-02-22T00:15:35;27.88;;;17.77;;
77099;SDS011;66602;48.922;2.414;2023-02-22T00:18:01;45.25;;;25.23;;
77099;SDS011;66602;48.922;2.414;2023-02-22T00:20:28;42.33;;;22.50;;
77099;SDS011;66602;48.922;2.414;2023-02-22T00:22:54;34.53;;;20.92;;
77099;SDS011;66602;48.922;2.414;2023-02-22T00:25:21;32.50;;;19.38;;
77099;SDS011;66602;48.922;2.414;2023-02-22T00:27:48;29.77;;;20.10;;
77099;SDS011;66602;48.922;2.414;2023-02-22T00:30:19;32.53;;;19.48;;
77099;SDS011;66602;48.922;2.414;2023-02-22T00:32:54;28.85;;;18.02;;
77099;SDS011;66602;48.922;2.414;2023-02-22T00:35:22;30.50;;;20.42;;
77099;SDS011;66602;48.922;2.414;2023-02-22T00:37:50;34.15;;;21.63;;
77099;SDS011;66602;48.922;2.414;2023-02-22T00:40:18;35.47;;;21.38;;
77099;SDS011;66602;48.922;2.414;2023-02-22T00:42:46;30.30;;;18.63;;
77099;SDS011;66602;48.922;2.414;2023-02-22T00:45:12;28.65;;;18.45;;
77099;SDS011;66602;48.922;2.414;2023-02-22T00:47:40;31.88;;;17.65;;
77099;SDS011;66602;48.922;2.414;2023-02-22T00:50:05;38.30;;;22.23;;
77099;SDS011;66602;48.922;2.414;2023-02-22T00:52:31;31.63;;;19.98;;
77099;SDS011;66602;48.922;2.414;2023-02-22T00:54:56;31.65;;;20.23;;
77099;SDS011;66602;48.922;2.414;2023-02-22T00:57:22;30.23;;;18.33;;
77099;SDS011;66602;48.922;2.414;2023-02-22T00:59:49;35.20;;;21.42;;
77099;SDS011;66602;48.922;2.414;2023-02-22T01:02:14;27.63;;;19.00;;
77099;SDS011;66602;48.922;2.414;2023-02-22T01:04:40;30.25;;;18.67;;
77099;SDS011;66602;48.922;2.414;2023-02-22T01:07:06;34.83;;;21.42;;
77099;SDS011;66602;48.922;2.414;2023-02-22T01:09:32;36.25;;;20.65;;
77099;SDS011;66602;48.922;2.414;2023-02-22T01:11:59;39.47;;;19.50;;
77099;SDS011;66602;48.922;2.414;2023-02-22T01:14:25;25.50;;;19.05;;
77099;SDS011;66602;48.922;2.414;2023-02-22T01:16:52;31.17;;;20.52;;
77099;SDS011;66602;48.922;2.414;2023-02-22T01:19:18;21.27;;;16.08;;
77099;SDS011;66602;48.922;2.414;2023-02-22T01:21:44;37.20;;;21.00;;
77099;SDS011;66602;48.922;2.414;2023-02-22T01:24:11;29.73;;;19.58;;
77099;SDS011;66602;48.922;2.414;2023-02-22T01:26:40;27.00;;;17.73;;
77099;SDS011;66602;48.922;2.414;2023-02-22T01:29:13;24.65;;;16.58;;
77099;SDS011;66602;48.922;2.414;2023-02-22T01:31:40;23.13;;;17.38;;
77099;SDS011;66602;48.922;2.414;2023-02-22T01:34:16;18.58;;;16.00;;
77099;SDS011;66602;48.922;2.414;2023-02-22T01:36:42;20.90;;;15.98;;
77099;SDS011;66602;48.922;2.414;2023-02-22T01:39:08;20.65;;;15.57;;
77099;SDS011;66602;48.922;2.414;2023-02-22T01:41:36;27.67;;;17.30;;
77099;SDS011;66602;48.922;2.414;2023-02-22T01:44:19;24.05;;;15.63;;
77099;SDS011;66602;48.922;2.414;2023-02-22T01:46:51;18.10;;;15.15;;
77099;SDS011;66602;48.922;2.414;2023-02-22T01:49:17;18.05;;;14.52;;
77099;SDS011;66602;48.922;2.414;2023-02-22T01:51:44;28.80;;;17.13;;
77099;SDS011;66602;48.922;2.414;2023-02-22T01:56:50;21.98;;;16.00;;
77099;SDS011;66602;48.922;2.414;2023-02-22T01:59:37;26.60;;;17.52;;
77099;SDS011;66602;48.922;2.414;2023-02-22T02:02:07;26.52;;;18.00;;
77099;SDS011;66602;48.922;2.414;2023-02-22T02:04:32;29.20;;;17.00;;
77099;SDS011;66602;48.922;2.414;2023-02-22T02:07:00;23.10;;;16.13;;
77099;SDS011;66602;48.922;2.414;2023-02-22T02:11:59;18.80;;;14.95;;
77099;SDS011;66602;48.922;2.414;2023-02-22T02:14:27;18.55;;;16.08;;
77099;SDS011;66602;48.922;2.414;2023-02-22T02:16:55;25.25;;;18.67;;
77099;SDS011;66602;48.922;2.414;2023-02-22T02:22:16;20.85;;;16.65;;
77099;SDS011;66602;48.922;2.414;2023-02-22T02:28:10;33.78;;;18.73;;
77099;SDS011;66602;48.922;2.414;2023-02-22T02:39:07;16.20;;;14.50;;
77099;SDS011;66602;48.922;2.414;2023-02-22T02:41:46;22.05;;;16.70;;
77099;SDS011;66602;48.922;2.414;2023-02-22T02:45:01;19.05;;;15.07;;
77099;SDS011;66602;48.922;2.414;2023-02-22T02:47:16;24.77;;;17.80;;
77099;SDS011;66602;48.922;2.414;2023-02-22T02:50:09;22.67;;;16.38;;
77099;SDS011;66602;48.922;2.414;2023-02-22T02:52:40;24.83;;;17.02;;
77099;SDS011;66602;48.922;2.414;2023-02-22T02:55:08;20.90;;;15.15;;
77099;SDS011;66602;48.922;2.414;2023-02-22T02:57:35;19.52;;;15.95;;
77099;SDS011;66602;48.922;2.414;2023-02-22T03:00:03;22.80;;;16.17;;
77099;SDS011;66602;48.922;2.414;2023-02-22T03:08:45;16.35;;;14.65;;
77099;SDS011;66602;48.922;2.414;2023-02-22T03:11:30;19.25;;;15.13;;
77099;SDS011;66602;48.922;2.414;2023-02-22T03:14:10;14.98;;;13.48;;
77099;SDS011;66602;48.922;2.414;2023-02-22T03:17:03;16.80;;;14.80;;
77099;SDS011;66602;48.922;2.414;2023-02-22T03:19:46;20.95;;;14.98;;
77099;SDS011;66602;48.922;2.414;2023-02-22T03:22:30;14.18;;;12.60;;
77099;SDS011;66602;48.922;2.414;2023-02-22T03:25:06;22.17;;;16.27;;
77099;SDS011;66602;48.922;2.414;2023-02-22T03:27:39;16.40;;;14.77;;
77099;SDS011;66602;48.922;2.414;2023-02-22T03:33:04;15.15;;;13.73;;
77099;SDS011;66602;48.922;2.414;2023-02-22T03:35:35;22.63;;;14.77;;
77099;SDS011;66602;48.922;2.414;2023-02-22T03:38:10;17.40;;;14.18;;
77099;SDS011;66602;48.922;2.414;2023-02-22T03:40:39;22.52;;;15.77;;
77099;SDS011;66602;48.922;2.414;2023-02-22T03:43:18;19.55;;;14.32;;
77099;SDS011;66602;48.922;2.414;2023-02-22T03:45:49;20.25;;;16.45;;
77099;SDS011;66602;48.922;2.414;2023-02-22T03:48:20;19.88;;;15.02;;
77099;SDS011;66602;48.922;2.414;2023-02-22T03:50:55;14.40;;;12.93;;
77099;SDS011;66602;48.922;2.414;2023-02-22T03:53:22;15.40;;;12.85;;
77099;SDS011;66602;48.922;2.414;2023-02-22T03:55:48;16.30;;;13.43;;
77099;SDS011;66602;48.922;2.414;2023-02-22T03:58:16;13.57;;;12.10;;
77099;SDS011;66602;48.922;2.414;2023-02-22T04:00:44;13.80;;;11.50;;
77099;SDS011;66602;48.922;2.414;2023-02-22T04:03:10;15.32;;;13.85;;
77099;SDS011;66602;48.922;2.414;2023-02-22T04:05:35;14.68;;;13.15;;
77099;SDS011;66602;48.922;2.414;2023-02-22T04:08:02;14.98;;;13.27;;
77099;SDS011;66602;48.922;2.414;2023-02-22T04:10:27;18.55;;;14.90;;
77099;SDS011;66602;48.922;2.414;2023-02-22T04:12:53;20.30;;;14.82;;
77099;SDS011;66602;48.922;2.414;2023-02-22T04:15:20;21.42;;;15.52;;
77099;SDS011;66602;48.922;2.414;2023-02-22T04:17:47;17.20;;;15.45;;
77099;SDS011;66602;48.922;2.414;2023-02-22T04:20:13;24.15;;;15.95;;
77099;SDS011;66602;48.922;2.414;2023-02-22T04:22:42;15.48;;;13.93;;
77099;SDS011;66602;48.922;2.414;2023-02-22T04:25:08;21.55;;;14.48;;
77099;SDS011;66602;48.922;2.414;2023-02-22T04:27:33;18.88;;;14.10;;
77099;SDS011;66602;48.922;2.414;2023-02-22T04:29:59;18.63;;;14.27;;
77099;SDS011;66602;48.922;2.414;2023-02-22T04:32:24;16.63;;;13.80;;
77099;SDS011;66602;48.922;2.414;2023-02-22T04:34:50;19.10;;;13.98;;
77099;SDS011;66602;48.922;2.414;2023-02-22T04:37:15;18.20;;;13.85;;
77099;SDS011;66602;48.922;2.414;2023-02-22T04:39:41;17.20;;;15.05;;
77099;SDS011;66602;48.922;2.414;2023-02-22T04:42:06;16.00;;;14.05;;
77099;SDS011;66602;48.922;2.414;2023-02-22T04:44:32;18.58;;;14.00;;
77099;SDS011;66602;48.922;2.414;2023-02-22T04:46:57;20.15;;;15.27;;
77099;SDS011;66602;48.922;2.414;2023-02-22T04:49:23;16.75;;;13.18;;
77099;SDS011;66602;48.922;2.414;2023-02-22T04:51:48;17.85;;;13.77;;
77099;SDS011;66602;48.922;2.414;2023-02-22T04:54:14;25.13;;;14.43;;
77099;SDS011;66602;48.922;2.414;2023-02-22T04:56:41;13.23;;;12.02;;
77099;SDS011;66602;48.922;2.414;2023-02-22T04:59:08;21.20;;;14.13;;
77099;SDS011;66602;48.922;2.414;2023-02-22T05:01:34;19.45;;;13.98;;
77099;SDS011;66602;48.922;2.414;2023-02-22T05:04:01;15.00;;;12.57;;
77099;SDS011;66602;48.922;2.414;2023-02-22T05:06:30;18.15;;;14.40;;
77099;SDS011;66602;48.922;2.414;2023-02-22T05:08:56;15.88;;;13.18;;
77099;SDS011;66602;48.922;2.414;2023-02-22T05:11:22;16.13;;;14.18;;
77099;SDS011;66602;48.922;2.414;2023-02-22T05:13:48;15.82;;;13.35;;
77099;SDS011;66602;48.922;2.414;2023-02-22T05:16:14;17.40;;;14.05;;
77099;SDS011;66602;48.922;2.414;2023-02-22T05:18:40;18.75;;;13.82;;
77099;SDS011;66602;48.922;2.414;2023-02-22T05:21:06;17.33;;;13.30;;
77099;SDS011;66602;48.922;2.414;2023-02-22T05:23:32;15.15;;;13.40;;
77099;SDS011;66602;48.922;2.414;2023-02-22T05:25:58;16.20;;;13.32;;
77099;SDS011;66602;48.922;2.414;2023-02-22T05:28:24;17.95;;;13.77;;
77099;SDS011;66602;48.922;2.414;2023-02-22T05:30:49;16.65;;;13.73;;
77099;SDS011;66602;48.922;2.414;2023-02-22T05:33:15;16.83;;;13.63;;
77099;SDS011;66602;48.922;2.414;2023-02-22T05:35:41;15.13;;;13.27;;
77099;SDS011;66602;48.922;2.414;2023-02-22T05:38:07;14.38;;;13.07;;
77099;SDS011;66602;48.922;2.414;2023-02-22T05:40:36;15.00;;;13.45;;
77099;SDS011;66602;48.922;2.414;2023-02-22T05:43:02;15.35;;;13.82;;
77099;SDS011;66602;48.922;2.414;2023-02-22T05:45:28;15.27;;;12.68;;
77099;SDS011;66602;48.922;2.414;2023-02-22T05:47:53;17.33;;;13.90;;
77099;SDS011;66602;48.922;2.414;2023-02-22T05:50:20;16.92;;;13.18;;
77099;SDS011;66602;48.922;2.414;2023-02-22T05:52:46;20.60;;;14.07;;
77099;SDS011;66602;48.922;2.414;2023-02-22T05:55:13;19.58;;;14.45;;
77099;SDS011;66602;48.922;2.414;2023-02-22T05:57:39;16.85;;;13.73;;
77099;SDS011;66602;48.922;2.414;2023-02-22T06:00:05;23.83;;;13.10;;
77099;SDS011;66602;48.922;2.414;2023-02-22T06:02:33;18.98;;;13.65;;
77099;SDS011;66602;48.922;2.414;2023-02-22T06:04:58;18.52;;;14.57;;
77099;SDS011;66602;48.922;2.414;2023-02-22T06:07:24;15.07;;;13.60;;
77099;SDS011;66602;48.922;2.414;2023-02-22T06:09:51;14.65;;;13.25;;
77099;SDS011;66602;48.922;2.414;2023-02-22T06:12:17;15.00;;;13.20;;
77099;SDS011;66602;48.922;2.414;2023-02-22T06:14:43;16.77;;;13.65;;
77099;SDS011;66602;48.922;2.414;2023-02-22T06:17:10;16.77;;;14.05;;
77099;SDS011;66602;48.922;2.414;2023-02-22T06:19:37;19.77;;;13.98;;
77099;SDS011;66602;48.922;2.414;2023-02-22T06:22:04;19.95;;;13.23;;
77099;SDS011;66602;48.922;2.414;2023-02-22T06:24:30;20.90;;;13.95;;
77099;SDS011;66602;48.922;2.414;2023-02-22T06:27:00;17.25;;;13.52;;
77099;SDS011;66602;48.922;2.414;2023-02-22T06:29:28;16.13;;;14.15;;
77099;SDS011;66602;48.922;2.414;2023-02-22T06:31:54;24.30;;;14.35;;
77099;SDS011;66602;48.922;2.414;2023-02-22T06:34:20;16.48;;;13.73;;
77099;SDS011;66602;48.922;2.414;2023-02-22T06:36:47;16.95;;;14.18;;
77099;SDS011;66602;48.922;2.414;2023-02-22T06:39:16;16.30;;;14.40;;
77099;SDS011;66602;48.922;2.414;2023-02-22T06:41:43;17.75;;;14.02;;
77099;SDS011;66602;48.922;2.414;2023-02-22T06:44:10;15.10;;;13.70;;
77099;SDS011;66602;48.922;2.414;2023-02-22T06:46:37;16.58;;;13.77;;
77099;SDS011;66602;48.922;2.414;2023-02-22T06:49:03;16.25;;;14.23;;
77099;SDS011;66602;48.922;2.414;2023-02-22T06:51:29;17.25;;;14.20;;
77099;SDS011;66602;48.922;2.414;2023-02-22T06:53:55;22.20;;;15.40;;
77099;SDS011;66602;48.922;2.414;2023-02-22T06:56:21;19.95;;;14.40;;
77099;SDS011;66602;48.922;2.414;2023-02-22T06:58:46;14.52;;;13.13;;
77099;SDS011;66602;48.922;2.414;2023-02-22T07:01:13;15.05;;;13.65;;
77099;SDS011;66602;48.922;2.414;2023-02-22T07:03:39;15.85;;;14.20;;
77099;SDS011;66602;48.922;2.414;2023-02-22T07:06:05;24.05;;;14.55;;
77099;SDS011;66602;48.922;2.414;2023-02-22T07:08:31;16.48;;;14.73;;
77099;SDS011;66602;48.922;2.414;2023-02-22T07:10:57;20.73;;;14.43;;
77099;SDS011;66602;48.922;2.414;2023-02-22T07:13:22;15.52;;;14.10;;
77099;SDS011;66602;48.922;2.414;2023-02-22T07:15:48;16.38;;;13.90;;
77099;SDS011;66602;48.922;2.414;2023-02-22T07:18:13;16.27;;;14.10;;
77099;SDS011;66602;48.922;2.414;2023-02-22T07:20:40;16.48;;;14.73;;
77099;SDS011;66602;48.922;2.414;2023-02-22T07:23:06;15.30;;;13.88;;
77099;SDS011;66602;48.922;2.414;2023-02-22T07:25:32;15.95;;;14.35;;
77099;SDS011;66602;48.922;2.414;2023-02-22T07:27:58;21.70;;;14.25;;
77099;SDS011;66602;48.922;2.414;2023-02-22T07:30:25;16.88;;;15.07;;
77099;SDS011;66602;48.922;2.414;2023-02-22T07:32:54;19.77;;;15.30;;
77099;SDS011;66602;48.922;2.414;2023-02-22T07:35:28;18.63;;;15.80;;
77099;SDS011;66602;48.922;2.414;2023-02-22T07:38:14;27.80;;;16.17;;
77099;SDS011;66602;48.922;2.414;2023-02-22T07:40:41;20.85;;;15.95;;
77099;SDS011;66602;48.922;2.414;2023-02-22T07:43:26;26.85;;;16.15;;
77099;SDS011;66602;48.922;2.414;2023-02-22T07:45:54;19.38;;;15.90;;
77099;SDS011;66602;48.922;2.414;2023-02-22T07:48:21;19.52;;;16.85;;
77099;SDS011;66602;48.922;2.414;2023-02-22T07:50:48;20.65;;;16.00;;
77099;SDS011;66602;48.922;2.414;2023-02-22T07:53:19;19.48;;;16.25;;
77099;SDS011;66602;48.922;2.414;2023-02-22T07:55:45;27.95;;;18.38;;
77099;SDS011;66602;48.922;2.414;2023-02-22T07:58:15;21.65;;;18.13;;
77099;SDS011;66602;48.922;2.414;2023-02-22T08:00:42;25.20;;;18.05;;
77099;SDS011;66602;48.922;2.414;2023-02-22T08:03:09;23.38;;;18.45;;
77099;SDS011;66602;48.922;2.414;2023-02-22T08:05:37;27.92;;;20.45;;
77099;SDS011;66602;48.922;2.414;2023-02-22T08:08:04;22.25;;;18.27;;
77099;SDS011;66602;48.922;2.414;2023-02-22T08:10:31;27.25;;;19.23;;
77099;SDS011;66602;48.922;2.414;2023-02-22T08:12:59;23.15;;;18.38;;
77099;SDS011;66602;48.922;2.414;2023-02-22T08:15:26;23.40;;;19.17;;
77099;SDS011;66602;48.922;2.414;2023-02-22T08:17:53;27.13;;;20.20;;
77099;SDS011;66602;48.922;2.414;2023-02-22T08:20:20;22.88;;;19.63;;
77099;SDS011;66602;48.922;2.414;2023-02-22T08:22:46;29.65;;;20.58;;
77099;SDS011;66602;48.922;2.414;2023-02-22T08:25:12;34.35;;;19.77;;
77099;SDS011;66602;48.922;2.414;2023-02-22T08:27:39;28.33;;;19.52;;
77099;SDS011;66602;48.922;2.414;2023-02-22T08:30:05;26.13;;;19.83;;
77099;SDS011;66602;48.922;2.414;2023-02-22T08:32:32;28.60;;;19.77;;
77099;SDS011;66602;48.922;2.414;2023-02-22T08:35:04;38.10;;;20.45;;
77099;SDS011;66602;48.922;2.414;2023-02-22T08:37:30;29.65;;;20.60;;
77099;SDS011;66602;48.922;2.414;2023-02-22T08:39:55;26.42;;;20.77;;
77099;SDS011;66602;48.922;2.414;2023-02-22T08:42:21;28.75;;;21.30;;
77099;SDS011;66602;48.922;2.414;2023-02-22T08:44:46;28.60;;;21.00;;
77099;SDS011;66602;48.922;2.414;2023-02-22T08:47:12;24.80;;;20.77;;
77099;SDS011;66602;48.922;2.414;2023-02-22T08:49:37;27.55;;;19.90;;
77099;SDS011;66602;48.922;2.414;2023-02-22T08:52:03;30.65;;;21.48;;
77099;SDS011;66602;48.922;2.414;2023-02-22T08:54:29;32.38;;;20.25;;
77099;SDS011;66602;48.922;2.414;2023-02-22T08:56:54;27.58;;;20.27;;
77099;SDS011;66602;48.922;2.414;2023-02-22T08:59:20;29.77;;;20.73;;
77099;SDS011;66602;48.922;2.414;2023-02-22T09:01:45;29.30;;;20.95;;
77099;SDS011;66602;48.922;2.414;2023-02-22T09:04:11;23.85;;;20.20;;
77099;SDS011;66602;48.922;2.414;2023-02-22T09:06:38;28.63;;;20.20;;
77099;SDS011;66602;48.922;2.414;2023-02-22T09:09:05;25.27;;;19.55;;
77099;SDS011;66602;48.922;2.414;2023-02-22T09:11:31;27.67;;;20.63;;
77099;SDS011;66602;48.922;2.414;2023-02-22T09:13:57;25.73;;;21.10;;
77099;SDS011;66602;48.922;2.414;2023-02-22T09:16:22;29.55;;;21.20;;
77099;SDS011;66602;48.922;2.414;2023-02-22T09:18:48;34.60;;;19.98;;
77099;SDS011;66602;48.922;2.414;2023-02-22T09:21:13;31.15;;;21.17;;
77099;SDS011;66602;48.922;2.414;2023-02-22T09:23:39;31.05;;;22.30;;
77099;SDS011;66602;48.922;2.414;2023-02-22T09:26:07;39.95;;;23.30;;
77099;SDS011;66602;48.922;2.414;2023-02-22T09:28:33;38.70;;;24.40;;
77099;SDS011;66602;48.922;2.414;2023-02-22T09:30:58;32.83;;;22.65;;
77099;SDS011;66602;48.922;2.414;2023-02-22T09:33:27;52.42;;;30.13;;
77099;SDS011;66602;48.922;2.414;2023-02-22T09:35:52;40.67;;;23.80;;
77099;SDS011;66602;48.922;2.414;2023-02-22T09:38:20;36.20;;;22.08;;
77099;SDS011;66602;48.922;2.414;2023-02-22T09:43:44;33.92;;;21.88;;
77099;SDS011;66602;48.922;2.414;2023-02-22T09:51:44;34.25;;;22.77;;
77099;SDS011;66602;48.922;2.414;2023-02-22T09:56:54;31.00;;;21.58;;
77099;SDS011;66602;48.922;2.414;2023-02-22T09:59:24;29.63;;;20.70;;
77099;SDS011;66602;48.922;2.414;2023-02-22T10:01:59;32.85;;;22.38;;
77099;SDS011;66602;48.922;2.414;2023-02-22T10:04:41;33.92;;;21.15;;
77099;SDS011;66602;48.922;2.414;2023-02-22T10:07:19;36.85;;;21.48;;
77099;SDS011;66602;48.922;2.414;2023-02-22T10:09:58;33.40;;;20.83;;
77099;SDS011;66602;48.922;2.414;2023-02-22T10:23:32;30.95;;;21.08;;
77099;SDS011;66602;48.922;2.414;2023-02-22T10:26:11;30.73;;;22.77;;
77099;SDS011;66602;48.922;2.414;2023-02-22T10:31:24;31.73;;;21.83;;
77099;SDS011;66602;48.922;2.414;2023-02-22T10:34:04;27.17;;;20.90;;
77099;SDS011;66602;48.922;2.414;2023-02-22T10:36:36;28.70;;;21.50;;
77099;SDS011;66602;48.922;2.414;2023-02-22T10:41:56;28.38;;;21.63;;
77099;SDS011;66602;48.922;2.414;2023-02-22T10:44:30;29.98;;;23.17;;
77099;SDS011;66602;48.922;2.414;2023-02-22T10:46:57;32.33;;;22.55;;
77099;SDS011;66602;48.922;2.414;2023-02-22T10:49:24;33.78;;;21.70;;
77099;SDS011;66602;48.922;2.414;2023-02-22T10:51:59;29.40;;;22.90;;
77099;SDS011;66602;48.922;2.414;2023-02-22T10:54:44;32.85;;;22.75;;
77099;SDS011;66602;48.922;2.414;2023-02-22T10:57:12;32.00;;;21.50;;
77099;SDS011;66602;48.922;2.414;2023-02-22T10:59:39;34.50;;;22.08;;
77099;SDS011;66602;48.922;2.414;2023-02-22T11:07:25;33.67;;;22.03;;
77099;SDS011;66602;48.922;2.414;2023-02-22T11:09:58;37.55;;;24.00;;
77099;SDS011;66602;48.922;2.414;2023-02-22T11:12:27;34.92;;;23.38;;
77099;SDS011;66602;48.922;2.414;2023-02-22T11:17:41;37.42;;;22.88;;
77099;SDS011;66602;48.922;2.414;2023-02-22T11:20:19;33.80;;;24.42;;
77099;SDS011;66602;48.922;2.414;2023-02-22T11:22:50;38.22;;;24.10;;
77099;SDS011;66602;48.922;2.414;2023-02-22T11:25:19;33.22;;;23.65;;
77099;SDS011;66602;48.922;2.414;2023-02-22T11:30:29;38.45;;;23.58;;
77099;SDS011;66602;48.922;2.414;2023-02-22T11:33:18;35.92;;;23.25;;
77099;SDS011;66602;48.922;2.414;2023-02-22T11:38:20;40.20;;;23.85;;
77099;SDS011;66602;48.922;2.414;2023-02-22T11:43:43;40.85;;;24.35;;
77099;SDS011;66602;48.922;2.414;2023-02-22T11:46:16;37.50;;;23.15;;
77099;SDS011;66602;48.922;2.414;2023-02-22T12:11:31;34.58;;;23.92;;
77099;SDS011;66602;48.922;2.414;2023-02-22T12:19:52;49.20;;;25.33;;
77099;SDS011;66602;48.922;2.414;2023-02-22T12:22:26;40.60;;;24.40;;
77099;SDS011;66602;48.922;2.414;2023-02-22T12:27:46;50.65;;;23.83;;
77099;SDS011;66602;48.922;2.414;2023-02-22T12:30:33;47.65;;;23.80;;
77099;SDS011;66602;48.922;2.414;2023-02-22T12:33:20;43.95;;;23.92;;
77099;SDS011;66602;48.922;2.414;2023-02-22T12:35:52;53.40;;;24.48;;
77099;SDS011;66602;48.922;2.414;2023-02-22T12:43:42;41.20;;;24.83;;
77099;SDS011;66602;48.922;2.414;2023-02-22T12:51:36;40.75;;;24.98;;
77099;SDS011;66602;48.922;2.414;2023-02-22T13:02:42;37.83;;;22.77;;
77099;SDS011;66602;48.922;2.414;2023-02-22T13:05:13;32.92;;;21.95;;
77099;SDS011;66602;48.922;2.414;2023-02-22T13:21:29;29.73;;;20.90;;
77099;SDS011;66602;48.922;2.414;2023-02-22T13:24:14;42.35;;;22.48;;
77099;SDS011;66602;48.922;2.414;2023-02-22T13:29:28;33.17;;;20.75;;
77099;SDS011;66602;48.922;2.414;2023-02-22T13:32:06;35.80;;;21.02;;
77099;SDS011;66602;48.922;2.414;2023-02-22T13:37:15;37.95;;;20.80;;
77099;SDS011;66602;48.922;2.414;2023-02-22T13:43:01;33.75;;;20.95;;
77099;SDS011;66602;48.922;2.414;2023-02-22T13:51:19;46.80;;;22.65;;
77099;SDS011;66602;48.922;2.414;2023-02-22T13:53:59;36.78;;;22.80;;
77099;SDS011;66602;48.922;2.414;2023-02-22T13:56:31;35.25;;;22.15;;
77099;SDS011;66602;48.922;2.414;2023-02-22T13:58:58;41.58;;;22.52;;
77099;SDS011;66602;48.922;2.414;2023-02-22T14:01:44;37.28;;;21.77;;
77099;SDS011;66602;48.922;2.414;2023-02-22T14:04:19;38.53;;;22.55;;
77099;SDS011;66602;48.922;2.414;2023-02-22T14:06:44;37.28;;;22.42;;
77099;SDS011;66602;48.922;2.414;2023-02-22T14:09:16;34.88;;;;;
77099;SDS011;66602;48.922;2.414;2023-02-22T14:17:38;38.63;;;21.90;;
77099;SDS011;66602;48.922;2.414;2023-02-22T14:20:26;45.30;;;22.15;;
77099;SDS011;66602;48.922;2.414;2023-02-22T14:23:44;45.70;;;23.60;;
77099;SDS011;66602;48.922;2.414;2023-02-22T14:26:08;33.60;;;22.02;;
77099;SDS011;66602;48.922;2.414;2023-02-22T14:31:31;47.08;;;23.38;;
77099;SDS011;66602;48.922;2.414;2023-02-22T14:39:34;35.00;;;22.65;;
77099;SDS011;66602;48.922;2.414;2023-02-22T14:48:03;42.45;;;23.02;;
77099;SDS011;66602;48.922;2.414;2023-02-22T14:53:21;48.83;;;25.77;;
77099;SDS011;66602;48.922;2.414;2023-02-22T14:55:59;48.55;;;24.10;;
77099;SDS011;66602;48.922;2.414;2023-02-22T15:00:56;52.53;;;24.23;;
77099;SDS011;66602;48.922;2.414;2023-02-22T15:03:33;53.05;;;24.98;;
77099;SDS011;66602;48.922;2.414;2023-02-22T15:06:05;53.55;;;24.95;;
77099;SDS011;66602;48.922;2.414;2023-02-22T15:08:39;45.90;;;23.90;;
77099;SDS011;66602;48.922;2.414;2023-02-22T15:11:10;45.17;;;25.92;;
77099;SDS011;66602;48.922;2.414;2023-02-22T15:13:48;42.67;;;23.38;;
77099;SDS011;66602;48.922;2.414;2023-02-22T15:16:16;39.75;;;22.70;;
77099;SDS011;66602;48.922;2.414;2023-02-22T15:18:42;40.38;;;23.73;;
77099;SDS011;66602;48.922;2.414;2023-02-22T15:21:12;39.95;;;22.98;;
77099;SDS011;66602;48.922;2.414;2023-02-22T15:23:44;41.78;;;23.17;;
77099;SDS011;66602;48.922;2.414;2023-02-22T15:28:56;39.60;;;21.02;;
77099;SDS011;66602;48.922;2.414;2023-02-22T15:36:56;31.17;;;20.98;;
77099;SDS011;66602;48.922;2.414;2023-02-22T15:39:32;30.13;;;19.33;;
77099;SDS011;66602;48.922;2.414;2023-02-22T15:44:48;26.45;;;18.40;;
77099;SDS011;66602;48.922;2.414;2023-02-22T15:47:28;24.95;;;17.73;;
77099;SDS011;66602;48.922;2.414;2023-02-22T15:55:23;28.38;;;18.13;;
77099;SDS011;66602;48.922;2.414;2023-02-22T15:57:54;26.77;;;15.65;;
77099;SDS011;66602;48.922;2.414;2023-02-22T16:00:23;15.70;;;13.90;;
77099;SDS011;66602;48.922;2.414;2023-02-22T16:03:18;22.67;;;14.55;;
77099;SDS011;66602;48.922;2.414;2023-02-22T16:05:53;19.75;;;15.32;;
77099;SDS011;66602;48.922;2.414;2023-02-22T16:11:25;27.10;;;15.57;;
77099;SDS011;66602;48.922;2.414;2023-02-22T16:14:00;17.25;;;13.98;;
77099;SDS011;66602;48.922;2.414;2023-02-22T16:16:32;18.58;;;14.82;;
77099;SDS011;66602;48.922;2.414;2023-02-22T16:22:04;17.35;;;14.77;;
77099;SDS011;66602;48.922;2.414;2023-02-22T16:24:37;23.30;;;16.02;;
77099;SDS011;66602;48.922;2.414;2023-02-22T16:29:34;15.60;;;14.00;;
77099;SDS011;66602;48.922;2.414;2023-02-22T16:32:00;16.67;;;14.85;;
77099;SDS011;66602;48.922;2.414;2023-02-22T16:34:26;17.50;;;15.40;;
77099;SDS011;66602;48.922;2.414;2023-02-22T16:36:51;16.52;;;13.25;;
77099;SDS011;66602;48.922;2.414;2023-02-22T16:41:51;16.00;;;14.27;;
77099;SDS011;66602;48.922;2.414;2023-02-22T16:44:22;13.32;;;12.07;;
77099;SDS011;66602;48.922;2.414;2023-02-22T16:46:50;14.88;;;13.40;;
77099;SDS011;66602;48.922;2.414;2023-02-22T16:49:17;17.98;;;13.88;;
77099;SDS011;66602;48.922;2.414;2023-02-22T16:51:47;16.88;;;14.63;;
77099;SDS011;66602;48.922;2.414;2023-02-22T16:54:29;15.68;;;13.90;;
77099;SDS011;66602;48.922;2.414;2023-02-22T16:56:58;17.20;;;14.10;;
77099;SDS011;66602;48.922;2.414;2023-02-22T16:59:26;25.38;;;17.67;;
77099;SDS011;66602;48.922;2.414;2023-02-22T17:01:54;18.83;;;15.68;;
77099;SDS011;66602;48.922;2.414;2023-02-22T17:04:23;19.67;;;14.52;;
77099;SDS011;66602;48.922;2.414;2023-02-22T17:06:50;18.33;;;14.55;;
77099;SDS011;66602;48.922;2.414;2023-02-22T17:09:34;19.90;;;16.05;;
77099;SDS011;66602;48.922;2.414;2023-02-22T17:12:00;23.73;;;16.80;;
77099;SDS011;66602;48.922;2.414;2023-02-22T17:14:29;22.05;;;14.98;;
77099;SDS011;66602;48.922;2.414;2023-02-22T17:16:57;17.95;;;14.80;;
77099;SDS011;66602;48.922;2.414;2023-02-22T17:19:24;22.60;;;15.13;;
77099;SDS011;66602;48.922;2.414;2023-02-22T17:21:50;16.77;;;14.48;;
77099;SDS011;66602;48.922;2.414;2023-02-22T17:24:18;15.82;;;14.15;;
77099;SDS011;66602;48.922;2.414;2023-02-22T17:26:47;13.63;;;12.45;;
77099;SDS011;66602;48.922;2.414;2023-02-22T17:29:16;14.10;;;12.65;;
77099;SDS011;66602;48.922;2.414;2023-02-22T17:31:42;13.30;;;11.90;;
77099;SDS011;66602;48.922;2.414;2023-02-22T17:34:10;12.55;;;11.35;;
77099;SDS011;66602;48.922;2.414;2023-02-22T17:36:36;11.77;;;10.77;;
77099;SDS011;66602;48.922;2.414;2023-02-22T17:39:02;11.73;;;10.75;;
77099;SDS011;66602;48.922;2.414;2023-02-22T17:41:30;13.43;;;12.02;;
77099;SDS011;66602;48.922;2.414;2023-02-22T17:43:56;13.95;;;11.45;;
77099;SDS011;66602;48.922;2.414;2023-02-22T17:46:22;13.40;;;11.05;;
77099;SDS011;66602;48.922;2.414;2023-02-22T17:48:52;12.27;;;11.10;;
77099;SDS011;66602;48.922;2.414;2023-02-22T17:51:21;13.00;;;11.60;;
77099;SDS011;66602;48.922;2.414;2023-02-22T17:53:48;12.30;;;11.18;;
77099;SDS011;66602;48.922;2.414;2023-02-22T17:56:15;13.82;;;10.90;;
77099;SDS011;66602;48.922;2.414;2023-02-22T17:58:44;12.60;;;10.70;;